Time;durP1;ratioP1;P1;durP2;ratioP2;P2;SDS_P1;SDS_P2;PMS_P1;PMS_P2;Temp;Humidity;BMP_temperature;BMP_pressure;BME280_temperature;BME280_humidity;BME280_pressure;Samples;Min_cycle;Max_cycle;Signal;HPM_P1;HPM_P2
2022/03/14 00:01:36;;;;;;;5.15;3.70;;;10.90;99.90;;;;;;5073318;28;20024;-70
2022/03/14 00:04:02;;;;;;;4.07;3.40;;;10.90;99.90;;;;;;5073216;28;20505;-70
2022/03/14 00:06:28;;;;;;;5.63;3.75;;;10.90;99.90;;;;;;5073144;28;20120;-70
2022/03/14 00:08:57;;;;;;;6.35;3.63;;;10.90;99.90;;;;;;5073363;28;20037;-70
2022/03/14 00:11:26;;;;;;;4.78;3.70;;;10.90;99.90;;;;;;5055176;28;20036;-70
2022/03/14 00:13:56;;;;;;;4.53;3.65;;;11.00;99.90;;;;;;5073350;28;20047;-70
2022/03/14 00:16:23;;;;;;;4.25;3.60;;;10.80;99.90;;;;;;5073320;28;20047;-70
2022/03/14 00:18:50;;;;;;;4.78;4.03;;;10.80;99.90;;;;;;5055301;28;20527;-70
2022/03/14 00:21:18;;;;;;;5.70;4.18;;;10.80;99.90;;;;;;5072612;28;20379;-70
2022/03/14 00:23:44;;;;;;;5.07;4.10;;;10.80;99.90;;;;;;5073196;28;20020;-70
2022/03/14 00:26:11;;;;;;;4.10;3.70;;;10.90;99.90;;;;;;5073077;28;20036;-71
2022/03/14 00:28:37;;;;;;;4.57;4.00;;;10.80;99.90;;;;;;5072885;28;20535;-70
2022/03/14 00:31:03;;;;;;;4.20;3.80;;;10.70;99.90;;;;;;5055207;28;20036;-70
2022/03/14 00:33:29;;;;;;;4.47;3.75;;;10.60;99.90;;;;;;5072871;28;20025;-70
2022/03/14 00:35:56;;;;;;;4.82;4.07;;;10.60;99.90;;;;;;5072794;28;20033;-70
2022/03/14 00:38:26;;;;;;;4.15;3.65;;;10.60;99.90;;;;;;5073067;28;20028;-71
2022/03/14 00:40:52;;;;;;;4.68;3.55;;;10.60;99.90;;;;;;5038191;28;20457;-71
2022/03/14 00:43:19;;;;;;;5.05;3.58;;;10.60;99.90;;;;;;5072987;28;20060;-70
2022/03/14 00:45:45;;;;;;;4.07;2.78;;;10.50;99.90;;;;;;5072712;28;20048;-70
2022/03/14 00:48:10;;;;;;;6.30;3.75;;;10.40;99.90;;;;;;5072863;28;20095;-71
2022/03/14 00:50:37;;;;;;;6.72;4.35;;;10.50;99.90;;;;;;5072447;28;20564;-71
2022/03/14 00:53:02;;;;;;;6.45;3.35;;;10.50;99.90;;;;;;5072733;28;20025;-70
2022/03/14 00:55:28;;;;;;;4.22;3.55;;;10.30;99.90;;;;;;5073212;28;20123;-70
2022/03/14 00:57:54;;;;;;;4.25;3.33;;;10.30;99.90;;;;;;5072681;28;20021;-70
2022/03/14 01:00:20;;;;;;;5.07;3.90;;;10.40;99.90;;;;;;5072877;28;20475;-71
2022/03/14 01:02:50;;;;;;;4.20;3.75;;;10.40;99.90;;;;;;5072517;28;20029;-70
2022/03/14 01:05:16;;;;;;;4.68;3.65;;;10.50;99.90;;;;;;5072516;28;20032;-70
2022/03/14 01:07:43;;;;;;;4.85;3.38;;;10.30;99.90;;;;;;5072622;28;20021;-70
2022/03/14 01:10:13;;;;;;;6.22;3.88;;;10.20;99.90;;;;;;5072718;28;20020;-70
2022/03/14 01:12:39;;;;;;;4.80;4.22;;;10.20;99.90;;;;;;5054694;28;20060;-70
2022/03/14 01:15:05;;;;;;;4.18;3.75;;;10.10;99.90;;;;;;5072565;28;20451;-71
2022/03/14 01:17:31;;;;;;;4.47;4.07;;;10.20;99.90;;;;;;5075924;28;20035;-70
2022/03/14 01:19:57;;;;;;;4.47;3.83;;;10.20;99.90;;;;;;5076609;28;20032;-70
2022/03/14 01:22:23;;;;;;;5.03;4.28;;;10.20;99.90;;;;;;5058472;28;20082;-70
2022/03/14 01:24:49;;;;;;;3.92;3.25;;;10.10;99.90;;;;;;5076644;28;20037;-71
2022/03/14 01:27:14;;;;;;;6.68;4.20;;;10.10;99.90;;;;;;5076093;28;20111;-70
2022/03/14 01:29:40;;;;;;;4.97;3.65;;;10.10;99.90;;;;;;5076309;28;20021;-70
2022/03/14 01:32:07;;;;;;;5.88;4.45;;;10.00;99.90;;;;;;5076233;28;20024;-70
2022/03/14 01:34:33;;;;;;;4.57;3.97;;;10.10;99.90;;;;;;5076461;28;20457;-70
2022/03/14 01:36:59;;;;;;;5.30;3.95;;;10.10;99.90;;;;;;5058500;28;20020;-70
2022/03/14 01:39:25;;;;;;;5.80;5.20;;;10.10;99.90;;;;;;5076121;28;20514;-70
2022/03/14 01:41:51;;;;;;;4.28;3.40;;;10.00;99.90;;;;;;5058358;28;20085;-70
2022/03/14 01:44:17;;;;;;;5.40;4.15;;;9.90;99.90;;;;;;5076312;28;20369;-70
2022/03/14 01:46:43;;;;;;;6.50;4.25;;;9.90;99.90;;;;;;5075775;28;20028;-71
2022/03/14 01:49:13;;;;;;;9.88;4.68;;;10.00;99.90;;;;;;5057966;28;20081;-70
2022/03/14 01:51:41;;;;;;;4.10;3.05;;;10.10;99.90;;;;;;5075942;28;20033;-70
2022/03/14 01:54:08;;;;;;;5.80;4.85;;;10.00;99.90;;;;;;5075868;28;20039;-70
2022/03/14 01:56:35;;;;;;;8.20;4.50;;;10.10;99.90;;;;;;5075740;28;20048;-70
2022/03/14 01:59:01;;;;;;;5.60;4.82;;;10.10;99.90;;;;;;5075675;28;20461;-70
2022/03/14 02:01:27;;;;;;;5.75;4.47;;;10.00;99.90;;;;;;5075618;28;20090;-70
2022/03/14 02:03:53;;;;;;;10.13;5.50;;;9.90;99.90;;;;;;5075777;28;20024;-70
2022/03/14 02:06:19;;;;;;;8.77;4.90;;;10.00;99.90;;;;;;5075906;28;20110;-70
2022/03/14 02:08:45;;;;;;;6.55;4.95;;;10.00;99.90;;;;;;5075700;28;20541;-70
2022/03/14 02:11:12;;;;;;;9.52;6.00;;;9.90;99.90;;;;;;5053133;28;20388;-70
2022/03/14 02:13:37;;;;;;;7.80;6.07;;;9.80;99.90;;;;;;5055050;28;20029;-70
2022/03/14 02:16:03;;;;;;;8.77;6.13;;;9.90;99.90;;;;;;5055176;28;20100;-70
2022/03/14 02:18:29;;;;;;;7.15;6.40;;;9.90;99.90;;;;;;5055553;28;20055;-70
2022/03/14 02:20:56;;;;;;;9.30;7.13;;;9.80;99.90;;;;;;5055225;28;20116;-71
2022/03/14 02:23:22;;;;;;;12.15;6.88;;;9.80;99.90;;;;;;5055490;28;20052;-71
2022/03/14 02:25:53;;;;;;;9.32;6.93;;;9.80;99.90;;;;;;5055160;28;20033;-71
2022/03/14 02:28:22;;;;;;;8.38;6.57;;;9.70;99.90;;;;;;5070255;28;20032;-70
2022/03/14 02:30:52;;;;;;;9.30;7.30;;;9.90;99.90;;;;;;5057028;28;20045;-70
2022/03/14 02:33:18;;;;;;;10.00;7.70;;;9.90;99.90;;;;;;5057142;28;20361;-71
2022/03/14 02:35:45;;;;;;;11.30;8.30;;;9.90;99.90;;;;;;5075172;28;20476;-71
2022/03/14 02:38:19;;;;;;;10.43;7.53;;;9.70;99.90;;;;;;5057226;28;20480;-70
2022/03/14 02:40:46;;;;;;;10.75;8.48;;;9.60;99.90;;;;;;5057227;28;20024;-70
2022/03/14 02:43:16;;;;;;;17.52;9.35;;;9.60;99.90;;;;;;5075111;28;20110;-71
2022/03/14 02:45:45;;;;;;;11.88;9.20;;;9.60;99.90;;;;;;5074796;28;20036;-70
2022/03/14 02:48:13;;;;;;;14.40;9.38;;;9.70;99.90;;;;;;5074924;28;20389;-71
2022/03/14 02:50:43;;;;;;;13.18;10.13;;;9.80;99.90;;;;;;5074724;28;20047;-70
2022/03/14 02:53:11;;;;;;;14.35;9.60;;;9.70;99.90;;;;;;5074817;28;20035;-71
2022/03/14 02:55:37;;;;;;;14.05;10.30;;;9.50;99.90;;;;;;5074764;28;20043;-70
2022/03/14 02:58:04;;;;;;;18.27;10.05;;;9.50;99.90;;;;;;5056821;28;20021;-70
2022/03/14 03:00:30;;;;;;;13.38;8.98;;;9.50;99.90;;;;;;5074279;28;20028;-70
2022/03/14 03:02:56;;;;;;;13.15;9.77;;;9.40;99.90;;;;;;5074746;28;20458;-70
2022/03/14 03:05:22;;;;;;;15.40;10.90;;;9.50;99.90;;;;;;5074520;28;20029;-70
2022/03/14 03:07:49;;;;;;;14.02;10.52;;;9.40;99.90;;;;;;5074608;28;20017;-71
2022/03/14 03:10:20;;;;;;;16.05;10.68;;;9.40;99.90;;;;;;5056573;28;20059;-70
2022/03/14 03:12:47;;;;;;;15.70;11.00;;;9.40;99.90;;;;;;5074865;28;20235;-70
2022/03/14 03:15:15;;;;;;;15.48;11.30;;;9.30;99.90;;;;;;5074096;28;20630;-70
2022/03/14 03:17:42;;;;;;;21.00;12.10;;;9.30;99.90;;;;;;5074490;28;20112;-70
2022/03/14 03:20:09;;;;;;;17.83;11.80;;;9.30;99.90;;;;;;5074219;28;20032;-71
2022/03/14 03:22:35;;;;;;;15.25;11.90;;;9.40;99.90;;;;;;5074226;28;20481;-71
2022/03/14 03:25:01;;;;;;;16.33;11.95;;;9.50;99.90;;;;;;5074179;28;20530;-71
2022/03/14 03:27:26;;;;;;;18.48;11.73;;;9.40;99.90;;;;;;5056046;28;20119;-71
2022/03/14 03:29:52;;;;;;;19.35;12.82;;;9.30;99.90;;;;;;5073896;28;20387;-71
2022/03/14 03:32:18;;;;;;;21.13;12.88;;;9.20;99.90;;;;;;5056205;28;20036;-71
2022/03/14 03:34:44;;;;;;;16.92;12.27;;;9.10;99.90;;;;;;5074009;28;20027;-70
2022/03/14 03:37:10;;;;;;;15.52;13.10;;;9.20;99.90;;;;;;5073890;28;20040;-71
2022/03/14 03:39:36;;;;;;;15.35;12.52;;;9.20;99.90;;;;;;5073778;28;20099;-70
2022/03/14 03:42:02;;;;;;;17.48;12.43;;;9.30;99.90;;;;;;5073915;28;20032;-71
2022/03/14 03:44:30;;;;;;;16.83;12.30;;;9.30;99.90;;;;;;5073625;28;20027;-71
2022/03/14 03:46:58;;;;;;;18.75;12.45;;;9.30;99.90;;;;;;5073395;28;20032;-71
2022/03/14 03:49:24;;;;;;;17.17;10.85;;;9.50;99.90;;;;;;5073605;28;20032;-71
2022/03/14 03:51:50;;;;;;;17.42;11.15;;;9.50;99.90;;;;;;5073705;28;20064;-71
2022/03/14 03:54:15;;;;;;;16.60;10.13;;;9.50;99.90;;;;;;5073759;28;20034;-71
2022/03/14 03:56:41;;;;;;;15.85;9.93;;;9.50;99.90;;;;;;5073537;28;20039;-71
2022/03/14 03:59:07;;;;;;;13.27;8.95;;;9.30;99.90;;;;;;5073463;28;20031;-70
2022/03/14 04:01:33;;;;;;;12.75;8.98;;;9.30;99.90;;;;;;5055396;28;20029;-70
2022/03/14 04:03:59;;;;;;;16.70;9.32;;;9.40;99.90;;;;;;5073491;28;20107;-71
2022/03/14 04:06:28;;;;;;;14.07;9.55;;;9.40;99.90;;;;;;5073346;28;20476;-70
2022/03/14 04:08:54;;;;;;;17.33;9.55;;;9.30;99.90;;;;;;5073496;28;20047;-70
2022/03/14 04:11:21;;;;;;;17.15;10.20;;;9.20;99.90;;;;;;5073377;28;20048;-70
2022/03/14 04:13:48;;;;;;;14.50;10.55;;;9.30;99.90;;;;;;5046288;23;20042;-77
2022/03/14 04:16:17;;;;;;;15.48;9.70;;;9.40;99.90;;;;;;5013590;28;20095;-77
2022/03/14 04:18:46;;;;;;;16.23;9.25;;;9.40;99.90;;;;;;5013781;28;20022;-77
2022/03/14 04:21:14;;;;;;;17.90;9.90;;;9.30;99.90;;;;;;5017013;28;20469;-77
2022/03/14 04:23:40;;;;;;;16.80;11.65;;;9.40;99.90;;;;;;5033495;28;20032;-77
2022/03/14 04:26:06;;;;;;;16.90;11.30;;;9.40;99.90;;;;;;5033156;28;20095;-77
2022/03/14 04:28:31;;;;;;;19.85;12.10;;;9.30;99.90;;;;;;5016798;28;20058;-77
2022/03/14 04:30:58;;;;;;;15.63;11.93;;;9.30;99.90;;;;;;5013568;28;20446;-77
2022/03/14 04:33:24;;;;;;;15.45;11.95;;;9.30;99.90;;;;;;5013484;28;20025;-76
2022/03/14 04:35:49;;;;;;;19.58;12.02;;;9.30;99.90;;;;;;4996057;28;20394;-77
2022/03/14 04:38:17;;;;;;;18.33;12.07;;;9.30;99.90;;;;;;5013579;28;20088;-76
2022/03/14 04:40:43;;;;;;;19.85;12.52;;;9.30;99.90;;;;;;5013315;28;20102;-77
2022/03/14 04:43:09;;;;;;;17.60;11.85;;;9.30;99.90;;;;;;4995841;28;20061;-77
2022/03/14 04:45:37;;;;;;;19.73;12.93;;;9.40;99.90;;;;;;5013149;28;20038;-76
2022/03/14 04:48:05;;;;;;;20.13;13.60;;;9.50;99.90;;;;;;5026450;28;20025;-76
2022/03/14 04:50:31;;;;;;;16.02;12.52;;;9.50;99.90;;;;;;5032219;28;20037;-76
2022/03/14 04:52:57;;;;;;;19.23;13.48;;;9.70;99.90;;;;;;5032973;28;20021;-77
2022/03/14 04:55:22;;;;;;;18.40;12.85;;;9.50;99.90;;;;;;5032887;28;20068;-77
2022/03/14 04:57:48;;;;;;;27.65;12.48;;;9.50;99.90;;;;;;5032833;28;20065;-77
2022/03/14 05:00:17;;;;;;;21.15;13.98;;;9.50;99.90;;;;;;5032883;28;20021;-76
2022/03/14 05:02:43;;;;;;;24.13;13.07;;;9.50;99.90;;;;;;5033080;28;20029;-76
2022/03/14 05:05:12;;;;;;;19.00;12.30;;;9.50;99.90;;;;;;5015132;28;20029;-77
2022/03/14 05:07:40;;;;;;;17.00;12.57;;;9.50;99.90;;;;;;5032901;28;20056;-76
2022/03/14 05:10:10;;;;;;;18.33;12.77;;;9.40;99.90;;;;;;5029943;28;20038;-76
2022/03/14 05:12:36;;;;;;;21.55;14.13;;;9.30;99.90;;;;;;5012698;28;20046;-76
2022/03/14 05:15:03;;;;;;;22.60;13.57;;;9.30;99.90;;;;;;5013260;28;20041;-77
2022/03/14 05:17:33;;;;;;;26.15;13.98;;;9.40;99.90;;;;;;5013276;28;20034;-76
2022/03/14 05:19:59;;;;;;;26.13;15.00;;;9.30;99.90;;;;;;5012998;28;20045;-77
2022/03/14 05:22:25;;;;;;;20.23;14.52;;;9.50;99.90;;;;;;5027891;28;20523;-76
2022/03/14 05:24:51;;;;;;;23.88;14.50;;;9.40;99.90;;;;;;5032404;28;20168;-76
2022/03/14 05:27:17;;;;;;;21.98;14.40;;;9.50;99.90;;;;;;5014490;28;20072;-76
2022/03/14 05:29:43;;;;;;;26.67;14.63;;;9.50;99.90;;;;;;5032587;28;20040;-76
2022/03/14 05:32:09;;;;;;;22.50;14.43;;;9.30;99.90;;;;;;5032684;28;20029;-77
2022/03/14 05:34:35;;;;;;;22.02;14.60;;;9.40;99.90;;;;;;5032570;28;20037;-76
2022/03/14 05:37:01;;;;;;;22.00;16.05;;;9.50;99.90;;;;;;5032673;28;20478;-76
2022/03/14 05:39:27;;;;;;;23.35;14.38;;;9.50;99.90;;;;;;5032057;28;20052;-76
2022/03/14 05:41:53;;;;;;;17.27;13.63;;;9.40;99.90;;;;;;5032678;28;20065;-76
2022/03/14 05:44:20;;;;;;;26.73;14.60;;;9.30;99.90;;;;;;5014950;28;20025;-76
2022/03/14 05:46:45;;;;;;;16.75;12.63;;;9.30;99.90;;;;;;5015006;28;20076;-76
2022/03/14 05:49:11;;;;;;;24.67;14.65;;;9.30;99.90;;;;;;5032200;28;20473;-77
2022/03/14 05:51:38;;;;;;;21.88;13.80;;;9.30;99.90;;;;;;4998377;28;20071;-76
2022/03/14 05:54:05;;;;;;;23.05;14.68;;;9.30;99.90;;;;;;5014562;28;20034;-76
2022/03/14 05:56:31;;;;;;;26.95;14.10;;;9.40;99.90;;;;;;5032628;28;20095;-76
2022/03/14 05:59:00;;;;;;;24.13;14.50;;;9.50;99.90;;;;;;5015053;28;20067;-77
2022/03/14 06:01:25;;;;;;;22.95;13.50;;;9.50;99.90;;;;;;5032527;28;20044;-76
2022/03/14 06:03:54;;;;;;;21.85;13.25;;;9.50;99.90;;;;;;5035842;28;20026;-76
2022/03/14 06:06:20;;;;;;;27.48;13.45;;;9.50;99.90;;;;;;5035955;28;20401;-76
2022/03/14 06:08:46;;;;;;;21.70;12.80;;;9.40;99.90;;;;;;5001383;28;20033;-76
2022/03/14 06:11:12;;;;;;;21.23;12.57;;;9.40;99.90;;;;;;5024275;28;20489;-76
2022/03/14 06:13:40;;;;;;;23.42;12.65;;;9.40;99.90;;;;;;5015931;28;20041;-77
2022/03/14 06:16:06;;;;;;;23.27;10.82;;;9.30;99.90;;;;;;5016109;28;20481;-76
2022/03/14 06:18:31;;;;;;;19.67;12.45;;;9.20;99.90;;;;;;5016157;28;20048;-76
2022/03/14 06:20:57;;;;;;;24.30;13.13;;;9.20;99.90;;;;;;5015922;28;20037;-76
2022/03/14 06:23:23;;;;;;;20.30;12.27;;;9.20;99.90;;;;;;5015608;28;20037;-76
2022/03/14 06:25:50;;;;;;;17.60;11.85;;;9.30;99.90;;;;;;5015761;28;20105;-77
2022/03/14 06:28:16;;;;;;;19.83;11.60;;;9.30;99.90;;;;;;5029985;28;20103;-76
2022/03/14 06:30:42;;;;;;;16.02;10.20;;;9.40;99.90;;;;;;5002547;28;20041;-77
2022/03/14 06:33:08;;;;;;;21.92;11.07;;;9.20;99.90;;;;;;4998137;28;20034;-77
2022/03/14 06:35:35;;;;;;;20.40;11.25;;;9.30;99.90;;;;;;5015801;28;20037;-77
2022/03/14 06:38:03;;;;;;;21.90;12.40;;;9.40;99.90;;;;;;5015415;28;20384;-77
2022/03/14 06:40:29;;;;;;;20.13;11.63;;;9.40;99.90;;;;;;4998315;28;20056;-77
2022/03/14 06:42:55;;;;;;;20.38;11.55;;;9.30;99.90;;;;;;4997987;28;20034;-77
2022/03/14 06:45:23;;;;;;;24.23;12.43;;;9.30;99.90;;;;;;5015567;28;20360;-77
2022/03/14 06:47:54;;;;;;;19.75;11.65;;;9.40;99.90;;;;;;5015781;28;20033;-77
2022/03/14 06:50:21;;;;;;;18.13;11.37;;;9.50;99.90;;;;;;5015136;28;20037;-76
2022/03/14 06:52:47;;;;;;;24.20;12.32;;;9.50;99.90;;;;;;4997921;28;20026;-76
2022/03/14 06:55:13;;;;;;;16.38;11.02;;;9.50;99.90;;;;;;5015121;28;20034;-76
2022/03/14 06:57:39;;;;;;;20.77;11.23;;;9.60;99.90;;;;;;5015473;28;20034;-76
2022/03/14 07:00:07;;;;;;;20.00;10.75;;;9.50;99.90;;;;;;4997776;28;20018;-77
2022/03/14 07:02:37;;;;;;;23.17;11.20;;;9.40;99.90;;;;;;5014939;28;20045;-77
2022/03/14 07:05:03;;;;;;;22.45;10.98;;;9.30;99.90;;;;;;5014879;28;20116;-76
2022/03/14 07:07:29;;;;;;;19.02;10.35;;;9.40;99.90;;;;;;5015154;28;20045;-76
2022/03/14 07:09:55;;;;;;;22.60;12.25;;;9.40;99.90;;;;;;5015508;28;20022;-77
2022/03/14 07:12:21;;;;;;;26.63;12.30;;;9.40;99.90;;;;;;5034340;28;20026;-76
2022/03/14 07:14:46;;;;;;;25.30;11.45;;;9.40;99.90;;;;;;5034123;28;20061;-76
2022/03/14 07:17:12;;;;;;;24.60;12.27;;;9.50;99.90;;;;;;5040856;28;20021;-77
2022/03/14 07:19:45;;;;;;;24.73;11.32;;;9.70;99.90;;;;;;5034665;28;20390;-78
2022/03/14 07:22:19;;;;;;;29.67;12.07;;;9.90;99.90;;;;;;5034735;28;20473;-76
2022/03/14 07:24:47;;;;;;;20.70;11.13;;;9.80;99.90;;;;;;5034695;28;20036;-76
2022/03/14 07:27:14;;;;;;;19.80;11.02;;;9.60;99.90;;;;;;5034367;28;20061;-76
2022/03/14 07:29:40;;;;;;;22.67;12.05;;;9.80;99.90;;;;;;5034356;28;20446;-76
2022/03/14 07:32:07;;;;;;;20.98;10.88;;;9.90;99.90;;;;;;5031636;28;20064;-74
2022/03/14 07:34:33;;;;;;;21.92;10.68;;;9.90;99.90;;;;;;4999820;28;20022;-75
2022/03/14 07:36:58;;;;;;;20.20;11.43;;;9.80;99.90;;;;;;5034009;28;20041;-75
2022/03/14 07:39:24;;;;;;;25.02;10.77;;;9.70;99.90;;;;;;5034301;28;20026;-75
2022/03/14 07:41:50;;;;;;;19.67;9.80;;;9.80;99.90;;;;;;5008452;28;20033;-76
2022/03/14 07:44:17;;;;;;;18.77;10.02;;;9.70;99.90;;;;;;5014448;28;20109;-75
2022/03/14 07:46:42;;;;;;;23.15;11.07;;;9.60;99.90;;;;;;5014269;28;20034;-76
2022/03/14 07:49:09;;;;;;;19.45;10.40;;;9.80;99.90;;;;;;5013861;28;20462;-77
2022/03/14 07:51:34;;;;;;;24.55;10.63;;;9.90;99.90;;;;;;5014062;28;20489;-77
2022/03/14 07:54:00;;;;;;;21.35;12.00;;;9.70;99.90;;;;;;5014220;28;20029;-76
2022/03/14 07:56:26;;;;;;;18.73;8.77;;;9.80;99.90;;;;;;4996509;28;20026;-75
2022/03/14 07:58:52;;;;;;;19.20;10.23;;;9.60;99.90;;;;;;4996545;28;20390;-75
2022/03/14 08:01:17;;;;;;;20.48;10.32;;;9.60;99.90;;;;;;5013862;28;20083;-74
2022/03/14 08:03:45;;;;;;;20.90;9.90;;;9.70;99.90;;;;;;5029293;28;20036;-75
2022/03/14 08:06:11;;;;;;;21.75;9.70;;;9.60;99.90;;;;;;5033683;28;20021;-77
2022/03/14 08:08:37;;;;;;;16.67;9.13;;;9.90;99.90;;;;;;5033589;28;20034;-75
2022/03/14 08:11:04;;;;;;;19.00;7.47;;;10.00;99.90;;;;;;5023517;28;20073;-76
2022/03/14 08:13:31;;;;;;;16.17;9.35;;;9.80;99.90;;;;;;5013353;28;20045;-75
2022/03/14 08:15:57;;;;;;;22.23;10.02;;;9.90;99.90;;;;;;5013688;28;20390;-78
2022/03/14 08:18:23;;;;;;;21.73;10.30;;;10.00;99.90;;;;;;5024622;23;20409;-75
2022/03/14 08:20:53;;;;;;;23.75;10.65;;;9.90;99.90;;;;;;4979869;28;20077;-75
2022/03/14 08:23:19;;;;;;;19.55;10.48;;;9.80;99.90;;;;;;5013549;28;20380;-74
2022/03/14 08:25:46;;;;;;;23.00;10.77;;;10.00;99.90;;;;;;5013325;28;20026;-75
2022/03/14 08:28:11;;;;;;;27.67;10.77;;;10.00;99.90;;;;;;5026899;28;20045;-75
2022/03/14 08:30:38;;;;;;;25.45;12.02;;;9.90;99.90;;;;;;5032943;28;20033;-74
2022/03/14 08:33:06;;;;;;;21.75;10.23;;;9.80;99.90;;;;;;5032466;28;20033;-75
2022/03/14 08:35:33;;;;;;;26.92;10.52;;;9.80;99.90;;;;;;5024743;28;20022;-75
2022/03/14 08:37:59;;;;;;;26.63;11.63;;;9.90;99.90;;;;;;4995378;28;20034;-74
2022/03/14 08:40:26;;;;;;;15.63;10.15;;;10.00;99.90;;;;;;4995605;28;20038;-75
2022/03/14 08:42:55;;;;;;;20.92;10.45;;;10.00;99.90;;;;;;5013134;28;20026;-73
2022/03/14 08:45:23;;;;;;;23.77;9.95;;;10.20;99.90;;;;;;5013004;28;20496;-74
2022/03/14 08:47:49;;;;;;;20.25;9.45;;;10.40;99.90;;;;;;5011407;28;20122;-73
2022/03/14 08:50:16;;;;;;;26.27;10.30;;;10.40;99.90;;;;;;5012907;28;20389;-75
2022/03/14 08:52:42;;;;;;;18.50;9.38;;;10.30;99.90;;;;;;4989848;28;20034;-74
2022/03/14 08:55:08;;;;;;;21.90;9.45;;;10.50;99.90;;;;;;5012894;28;20033;-74
2022/03/14 08:57:34;;;;;;;18.55;9.30;;;10.60;99.90;;;;;;4995265;28;20026;-74
2022/03/14 09:00:00;;;;;;;20.42;9.65;;;10.40;99.90;;;;;;5012847;28;20490;-75
2022/03/14 09:02:26;;;;;;;19.20;9.55;;;10.10;99.90;;;;;;5017317;28;20040;-75
2022/03/14 09:04:52;;;;;;;21.08;9.85;;;10.10;99.90;;;;;;5032552;28;20076;-74
2022/03/14 09:07:26;;;;;;;21.30;9.85;;;10.20;99.90;;;;;;5014845;28;20048;-75
2022/03/14 09:09:53;;;;;;;26.05;9.02;;;10.20;99.90;;;;;;5032111;28;20084;-75
2022/03/14 09:12:20;;;;;;;26.38;9.27;;;10.30;99.90;;;;;;5032664;28;20072;-74
2022/03/14 09:14:47;;;;;;;20.77;9.25;;;10.20;99.90;;;;;;5014339;28;20018;-75
2022/03/14 09:17:13;;;;;;;27.85;9.38;;;10.40;99.90;;;;;;5032197;28;20029;-74
2022/03/14 09:19:40;;;;;;;21.33;8.75;;;10.50;99.90;;;;;;5032014;28;20029;-75
2022/03/14 09:22:10;;;;;;;19.27;8.25;;;10.60;99.90;;;;;;5015293;28;20025;-75
2022/03/14 09:24:37;;;;;;;15.55;8.52;;;10.60;99.90;;;;;;5014267;28;20109;-75
2022/03/14 09:27:06;;;;;;;18.70;8.30;;;10.70;99.90;;;;;;5025839;28;20033;-75
2022/03/14 09:29:32;;;;;;;26.33;8.35;;;10.80;99.90;;;;;;5032321;28;20021;-75
2022/03/14 09:31:58;;;;;;;24.05;9.15;;;10.90;99.90;;;;;;5031856;28;20037;-74
2022/03/14 09:34:24;;;;;;;24.85;8.52;;;10.90;99.90;;;;;;5031822;28;20465;-75
2022/03/14 09:36:50;;;;;;;21.70;8.00;;;11.10;99.90;;;;;;5031613;28;20473;-75
2022/03/14 09:39:16;;;;;;;21.73;8.07;;;11.00;99.90;;;;;;4998375;28;20292;-75
2022/03/14 09:41:43;;;;;;;23.52;8.02;;;11.20;99.90;;;;;;4998776;28;20109;-75
2022/03/14 09:44:09;;;;;;;21.90;9.30;;;11.30;99.90;;;;;;4998188;28;20393;-74
2022/03/14 09:46:39;;;;;;;20.92;8.35;;;11.70;99.90;;;;;;4998135;28;20037;-74
2022/03/14 09:49:09;;;;;;;25.40;7.35;;;11.60;99.90;;;;;;5027731;28;20029;-74
2022/03/14 09:51:39;;;;;;;15.35;6.65;;;11.60;99.90;;;;;;5035574;28;20077;-74
2022/03/14 09:54:07;;;;;;;13.27;6.18;;;11.30;99.90;;;;;;5024056;28;20026;-75
2022/03/14 09:56:32;;;;;;;17.73;6.82;;;11.10;99.90;;;;;;5007166;28;20037;-75
2022/03/14 09:59:00;;;;;;;21.63;7.55;;;11.20;99.90;;;;;;4995801;28;20381;-75
2022/03/14 10:01:27;;;;;;;22.65;6.72;;;11.60;99.90;;;;;;5015319;28;20623;-75
2022/03/14 10:03:54;;;;;;;14.23;6.22;;;11.40;99.90;;;;;;5032629;28;20392;-76
2022/03/14 10:06:20;;;;;;;22.33;6.68;;;11.40;99.90;;;;;;5035544;28;20064;-74
2022/03/14 10:08:46;;;;;;;22.25;6.93;;;11.50;99.90;;;;;;5035155;28;20060;-75
2022/03/14 10:11:12;;;;;;;21.02;6.38;;;11.60;99.90;;;;;;5024003;28;20074;-75
2022/03/14 10:13:37;;;;;;;29.38;7.00;;;11.60;99.90;;;;;;4997790;28;20022;-75
2022/03/14 10:16:05;;;;;;;18.38;6.47;;;11.40;99.90;;;;;;4997857;28;20072;-75
2022/03/14 10:18:37;;;;;;;14.95;5.95;;;11.60;99.90;;;;;;5015659;28;20030;-75
2022/03/14 10:21:10;;;;;;;20.30;7.07;;;11.60;99.90;;;;;;5015629;28;20034;-75
2022/03/14 10:23:43;;;;;;;23.98;6.53;;;12.20;99.90;;;;;;5015686;28;20034;-73
2022/03/14 10:26:17;;;;;;;18.40;6.93;;;12.40;99.90;;;;;;4997336;28;20053;-75
2022/03/14 10:28:49;;;;;;;17.33;5.90;;;12.20;99.90;;;;;;5015358;28;20072;-75
2022/03/14 10:31:26;;;;;;;24.63;5.88;;;12.40;99.90;;;;;;5033958;28;20060;-75
2022/03/14 10:33:59;;;;;;;21.10;6.00;;;12.50;99.90;;;;;;5034775;28;20033;-75
2022/03/14 10:36:42;;;;;;;17.40;5.90;;;13.00;99.90;;;;;;5015266;28;20045;-75
2022/03/14 10:39:12;;;;;;;21.60;6.57;;;12.40;99.90;;;;;;5015289;28;20083;-75
2022/03/14 10:41:39;;;;;;;15.40;6.13;;;12.30;99.90;;;;;;5014861;28;20038;-74
2022/03/14 10:44:06;;;;;;;16.83;6.00;;;12.30;99.90;;;;;;5014484;28;20022;-75
2022/03/14 10:46:33;;;;;;;15.90;5.47;;;12.30;99.90;;;;;;4997140;28;20642;-73
2022/03/14 10:48:58;;;;;;;24.42;7.43;;;12.10;99.90;;;;;;4996416;28;20105;-74
2022/03/14 10:51:24;;;;;;;18.95;6.25;;;11.90;99.90;;;;;;5017621;28;20160;-75
2022/03/14 10:53:50;;;;;;;24.83;5.88;;;11.90;99.90;;;;;;5034438;28;20022;-74
2022/03/14 10:56:19;;;;;;;13.40;6.40;;;12.00;99.90;;;;;;5034505;28;20109;-75
2022/03/14 10:58:44;;;;;;;17.30;6.20;;;12.00;99.90;;;;;;5034315;28;20469;-74
2022/03/14 11:01:12;;;;;;;19.38;5.43;;;11.60;99.90;;;;;;5016772;28;20060;-74
2022/03/14 11:03:40;;;;;;;27.60;5.88;;;11.80;99.90;;;;;;5028992;28;20018;-73
2022/03/14 11:06:15;;;;;;;18.45;6.95;;;11.80;99.90;;;;;;5034478;28;20378;-74
2022/03/14 11:08:51;;;;;;;25.95;5.82;;;11.90;99.90;;;;;;5020057;28;20178;-74
2022/03/14 11:11:22;;;;;;;24.85;6.13;;;12.00;99.90;;;;;;5023776;28;20068;-74
2022/03/14 11:13:50;;;;;;;16.13;6.30;;;12.30;99.90;;;;;;5013235;28;20429;-75
2022/03/14 11:16:20;;;;;;;22.73;5.15;;;12.90;99.90;;;;;;5014326;28;20083;-74
2022/03/14 11:18:46;;;;;;;18.35;6.18;;;13.20;99.90;;;;;;5014305;28;20038;-75
2022/03/14 11:21:20;;;;;;;12.02;4.35;;;13.10;99.90;;;;;;5014359;28;20398;-74
2022/03/14 11:23:48;;;;;;;19.40;8.02;;;12.80;99.90;;;;;;4996517;28;20025;-74
2022/03/14 11:26:17;;;;;;;16.88;7.47;;;12.90;99.90;;;;;;5014176;28;20033;-75
2022/03/14 11:28:45;;;;;;;25.33;5.57;;;12.80;99.90;;;;;;5032131;28;20021;-74
2022/03/14 11:31:11;;;;;;;12.60;5.40;;;13.10;99.90;;;;;;5034014;28;20037;-74
2022/03/14 11:33:37;;;;;;;22.13;5.47;;;13.30;99.90;;;;;;5034043;28;20029;-74
2022/03/14 11:36:06;;;;;;;13.93;4.70;;;13.50;99.90;;;;;;5031722;28;20042;-78
2022/03/14 11:38:33;;;;;;;20.52;5.78;;;13.20;99.90;;;;;;5014145;28;20018;-80
2022/03/14 11:41:00;;;;;;;15.88;5.43;;;13.10;99.90;;;;;;5013604;28;20080;-79
2022/03/14 11:43:27;;;;;;;15.73;5.38;;;13.20;99.90;;;;;;4996353;28;20026;-80
2022/03/14 11:45:54;;;;;;;20.88;5.40;;;13.00;99.90;;;;;;4996354;28;20061;-80
2022/03/14 11:48:21;;;;;;;21.63;5.70;;;13.20;99.90;;;;;;5013952;28;20030;-76
2022/03/14 11:50:47;;;;;;;19.63;5.78;;;13.00;99.90;;;;;;5013894;28;20084;-80
2022/03/14 11:53:24;;;;;;;16.98;4.45;;;13.20;99.90;;;;;;5013995;28;20026;-79
2022/03/14 11:55:56;;;;;;;12.93;4.00;;;14.50;99.90;;;;;;5013531;28;20129;-79
2022/03/14 11:58:51;;;;;;;13.27;4.13;;;14.60;99.90;;;;;;5014011;28;20108;-79
2022/03/14 12:01:23;;;;;;;15.13;5.35;;;13.80;99.90;;;;;;4995874;28;20064;-80
2022/03/14 12:04:00;;;;;;;23.15;5.65;;;13.50;99.90;;;;;;5013825;28;20053;-80
2022/03/14 12:06:47;;;;;;;17.75;5.53;;;13.30;99.90;;;;;;4995879;28;20061;-80
2022/03/14 12:09:25;;;;;;;20.63;6.40;;;13.60;99.90;;;;;;5013605;28;20123;-77
2022/03/14 12:11:59;;;;;;;22.85;5.32;;;13.60;99.90;;;;;;5012223;28;20049;-79
2022/03/14 12:14:44;;;;;;;15.77;6.07;;;13.60;99.90;;;;;;5015592;28;20034;-80
2022/03/14 12:17:13;;;;;;;18.25;6.47;;;13.50;99.90;;;;;;5032956;28;20036;-80
2022/03/14 12:19:48;;;;;;;16.73;5.65;;;13.70;99.90;;;;;;5033260;28;20116;-79
2022/03/14 12:22:35;;;;;;;19.40;6.43;;;13.30;99.90;;;;;;4998895;28;20124;-79
2022/03/14 12:25:03;;;;;;;27.27;9.60;;;13.40;99.90;;;;;;5032427;28;20054;-79
2022/03/14 12:27:36;;;;;;;20.90;6.30;;;13.40;99.90;;;;;;5032959;28;20037;-78
2022/03/14 12:30:24;;;;;;;18.63;6.60;;;13.40;99.90;;;;;;5015363;28;20025;-78
2022/03/14 12:32:55;;;;;;;21.15;7.43;;;13.60;99.90;;;;;;5017782;28;20045;-79
2022/03/14 12:35:25;;;;;;;20.45;6.88;;;13.30;99.90;;;;;;5032983;28;20060;-79
2022/03/14 12:38:10;;;;;;;20.38;7.45;;;13.10;99.90;;;;;;5032990;28;20171;-79
2022/03/14 12:40:36;;;;;;;16.05;6.95;;;13.00;99.90;;;;;;5015141;28;20512;-79
2022/03/14 12:43:09;;;;;;;17.55;6.88;;;13.20;99.90;;;;;;5015247;28;20057;-79